createdAt,value
2023-01-13T00:02:17.007Z,86.53
2023-01-13T00:04:58.597Z,86.38
2023-01-13T00:07:27.514Z,86.30
2023-01-13T00:10:11.943Z,86.28
2023-01-13T00:12:48.386Z,86.15
2023-01-13T00:15:26.403Z,86.14
2023-01-13T00:17:55.382Z,86.07
2023-01-13T00:20:26.333Z,85.99
2023-01-13T00:23:15.259Z,85.95
2023-01-13T00:25:44.268Z,85.94
2023-01-13T00:28:33.471Z,85.92
2023-01-13T00:31:22.523Z,85.91
2023-01-13T00:33:58.024Z,86.05
2023-01-13T00:36:29.374Z,86.18
2023-01-13T00:38:58.856Z,86.28
2023-01-13T00:42:05.838Z,86.46
2023-01-13T00:44:48.504Z,86.66
2023-01-13T00:47:28.421Z,86.81
2023-01-13T00:49:57.205Z,86.94
2023-01-13T00:52:35.355Z,86.92
2023-01-13T00:55:24.306Z,86.92
2023-01-13T00:57:53.158Z,86.99
2023-01-13T01:00:33.083Z,86.90
2023-01-13T01:03:09.157Z,86.86
2023-01-13T01:05:41.083Z,86.82
2023-01-13T01:08:09.856Z,86.80
2023-01-13T01:11:03.058Z,86.69
2023-01-13T01:13:32.496Z,86.66
2023-01-13T01:16:08.267Z,86.72
2023-01-13T01:18:57.335Z,86.75
2023-01-13T01:21:37.195Z,86.80
2023-01-13T01:24:07.087Z,86.82
2023-01-13T01:26:46.047Z,86.78
2023-01-13T01:29:17.552Z,86.74
2023-01-13T01:31:46.338Z,86.74
2023-01-13T01:34:35.744Z,86.59
2023-01-13T01:37:07.637Z,86.55
2023-01-13T01:39:44.317Z,86.39
2023-01-13T01:42:44.902Z,86.16
2023-01-13T01:45:24.933Z,86.07
2023-01-13T01:48:05.915Z,85.89
2023-01-13T01:50:35.816Z,85.68
2023-01-13T01:53:19.351Z,85.56
2023-01-13T01:55:54.606Z,85.29
2023-01-13T01:58:29.490Z,85.17
2023-01-13T02:01:18.603Z,84.95
2023-01-13T02:04:12.826Z,84.69
2023-01-13T02:07:04.226Z,84.63
2023-01-13T02:09:44.516Z,84.35
2023-01-13T02:12:34.994Z,84.24
2023-01-13T02:15:32.179Z,84.08
2023-01-13T02:18:38.101Z,83.94
2023-01-13T02:21:42.661Z,83.85
2023-01-13T02:25:04.272Z,83.76
2023-01-13T02:28:13.511Z,83.68
2023-01-13T02:31:18.009Z,83.59
2023-01-13T02:34:11.268Z,83.50
2023-01-13T02:37:08.614Z,83.26
2023-01-13T02:40:01.492Z,83.09
2023-01-13T02:42:51.823Z,83.01
2023-01-13T02:45:44.849Z,82.81
2023-01-13T02:48:19.024Z,82.66
2023-01-13T02:51:11.499Z,82.60
2023-01-13T02:53:56.561Z,82.71
2023-01-13T02:56:26.583Z,82.62
2023-01-13T02:59:10.471Z,82.45
2023-01-13T03:01:39.517Z,82.46
2023-01-13T03:05:00.836Z,82.33
2023-01-13T03:08:30.851Z,82.42
2023-01-13T03:11:08.137Z,82.40
2023-01-13T03:13:52.452Z,82.22
2023-01-13T03:16:51.986Z,82.16
2023-01-13T03:19:36.191Z,82.26
2023-01-13T03:22:22.840Z,82.28
2023-01-13T03:25:11.682Z,82.28
2023-01-13T03:33:30.187Z,82.43
2023-01-13T03:36:08.914Z,82.21
2023-01-13T03:38:46.596Z,82.15
2023-01-13T03:41:24.534Z,82.16
2023-01-13T03:44:22.426Z,82.12
2023-01-13T03:47:04.241Z,82.09
2023-01-13T03:49:42.242Z,82.19
2023-01-13T03:52:23.304Z,82.21
2023-01-13T03:54:59.106Z,82.19
2023-01-13T03:57:37.533Z,82.08
2023-01-13T04:00:14.603Z,82.07
2023-01-13T04:02:55.697Z,81.94
2023-01-13T04:05:31.285Z,81.84
2023-01-13T04:08:26.127Z,81.74
2023-01-13T04:11:04.703Z,81.55
2023-01-13T04:13:41.358Z,81.45
2023-01-13T04:16:16.425Z,81.40
2023-01-13T04:18:51.081Z,81.40
2023-01-13T04:21:23.839Z,81.18
2023-01-13T04:23:58.428Z,81.19
2023-01-13T04:26:29.284Z,81.21
2023-01-13T04:29:01.425Z,81.18
2023-01-13T04:31:34.002Z,80.97
2023-01-13T04:34:06.685Z,81.02
2023-01-13T04:36:43.693Z,81.08
2023-01-13T04:39:15.828Z,81.00
2023-01-13T04:42:00.067Z,80.96
2023-01-13T04:44:35.376Z,80.97
2023-01-13T04:47:08.227Z,80.98
2023-01-13T04:49:40.492Z,80.88
2023-01-13T04:52:12.938Z,80.87
2023-01-13T04:54:45.072Z,80.78
2023-01-13T04:57:17.314Z,80.73
2023-01-13T04:59:49.780Z,80.78
2023-01-13T05:02:22.395Z,80.64
2023-01-13T05:04:57.213Z,80.79
2023-01-13T05:07:29.593Z,80.73
2023-01-13T05:10:04.501Z,80.51
2023-01-13T05:12:54.436Z,80.42
2023-01-13T05:15:44.114Z,80.43
2023-01-13T05:18:17.341Z,80.36
2023-01-13T05:20:50.729Z,80.32
2023-01-13T05:23:40.955Z,80.35
2023-01-13T05:26:13.463Z,80.30
2023-01-13T05:28:45.882Z,80.18
2023-01-13T05:31:20.502Z,80.30
2023-01-13T05:33:51.246Z,80.32
2023-01-13T05:36:23.614Z,80.35
2023-01-13T05:38:56.127Z,80.33
2023-01-13T05:41:44.298Z,80.40
2023-01-13T05:44:16.825Z,80.44
2023-01-13T05:46:49.204Z,80.33
2023-01-13T05:49:24.230Z,80.46
2023-01-13T05:51:56.389Z,80.39
2023-01-13T05:54:31.531Z,80.32
2023-01-13T05:57:03.704Z,80.44
2023-01-13T05:59:34.551Z,80.43
2023-01-13T06:02:06.914Z,80.42
2023-01-13T06:04:39.612Z,80.37
2023-01-13T06:07:12.607Z,80.39
2023-01-13T06:09:45.142Z,80.38
2023-01-13T06:12:17.648Z,80.34
2023-01-13T06:14:50.823Z,80.35
2023-01-13T06:17:22.969Z,80.39
2023-01-13T06:19:55.090Z,80.48
2023-01-13T06:22:32.360Z,80.52
2023-01-13T06:25:09.285Z,80.65
2023-01-13T06:27:42.039Z,80.72
2023-01-13T06:30:15.332Z,80.78
2023-01-13T06:32:50.758Z,80.91
2023-01-13T06:35:26.926Z,80.91
2023-01-13T06:38:02.608Z,80.89
2023-01-13T06:40:34.725Z,80.89
2023-01-13T06:43:18.927Z,81.01
2023-01-13T06:45:54.168Z,81.04
2023-01-13T06:48:29.133Z,81.11
2023-01-13T06:51:01.954Z,81.13
2023-01-13T06:53:34.624Z,81.04
2023-01-13T06:56:07.435Z,80.95
2023-01-13T06:58:42.880Z,80.95
2023-01-13T07:01:15.588Z,80.94
2023-01-13T07:03:48.078Z,80.91
2023-01-13T07:06:21.401Z,80.90
2023-01-13T07:08:53.742Z,80.88
2023-01-13T07:11:26.133Z,80.98
2023-01-13T07:14:15.972Z,81.04
2023-01-13T07:16:48.499Z,80.99
2023-01-13T07:19:23.870Z,81.06
2023-01-13T07:21:56.357Z,81.05
2023-01-13T07:24:28.595Z,81.06
2023-01-13T07:26:59.350Z,81.11
2023-01-13T07:29:31.900Z,81.15
2023-01-13T07:32:04.487Z,81.13
2023-01-13T07:34:36.977Z,81.19
2023-01-13T07:37:09.426Z,81.06
2023-01-13T07:39:41.662Z,81.03
2023-01-13T07:42:42.818Z,80.85
2023-01-13T07:45:27.443Z,80.94
2023-01-13T07:48:11.120Z,80.76
2023-01-13T07:50:47.582Z,80.75
2023-01-13T07:53:40.330Z,80.68
2023-01-13T07:56:15.750Z,80.63
2023-01-13T07:58:50.475Z,80.66
2023-01-13T08:01:23.136Z,80.51
2023-01-13T08:03:56.113Z,80.46
2023-01-13T08:06:28.882Z,80.30
2023-01-13T08:09:01.552Z,80.18
2023-01-13T08:11:33.606Z,79.99
2023-01-13T08:14:05.707Z,79.97
2023-01-13T08:16:36.427Z,79.84
2023-01-13T08:19:08.813Z,79.80
2023-01-13T08:21:41.128Z,79.72
2023-01-13T08:24:11.969Z,79.50
2023-01-13T08:26:44.125Z,79.05
2023-01-13T08:29:20.862Z,78.59
2023-01-13T08:31:53.213Z,78.14
2023-01-13T08:34:27.742Z,78.00
2023-01-13T08:36:59.704Z,77.23
2023-01-13T08:39:32.102Z,77.02
2023-01-13T08:42:04.758Z,76.76
2023-01-13T08:44:37.485Z,76.74
2023-01-13T08:47:09.752Z,76.54
2023-01-13T08:49:42.029Z,76.31
2023-01-13T08:52:12.617Z,76.01
2023-01-13T08:54:44.971Z,75.91
2023-01-13T08:57:19.563Z,76.05
2023-01-13T08:59:52.134Z,76.11
2023-01-13T09:02:26.687Z,75.83
2023-01-13T09:05:02.901Z,75.85
2023-01-13T09:07:35.542Z,75.84
2023-01-13T09:10:09.694Z,75.58
2023-01-13T09:12:59.736Z,75.53
2023-01-13T09:15:32.068Z,75.76
2023-01-13T09:18:04.425Z,75.52
2023-01-13T09:20:36.976Z,75.35
2023-01-13T09:23:10.861Z,75.24
2023-01-13T09:25:43.461Z,75.12
2023-01-13T09:28:13.987Z,75.26
2023-01-13T09:30:46.582Z,75.59
2023-01-13T09:33:36.537Z,75.82
2023-01-13T09:36:11.493Z,75.95
2023-01-13T09:38:43.735Z,75.92
2023-01-13T09:41:34.315Z,76.15
2023-01-13T09:44:09.003Z,76.41
2023-01-13T09:46:48.320Z,76.23
2023-01-13T09:49:24.005Z,76.37
2023-01-13T09:52:05.791Z,76.60
2023-01-13T09:54:43.001Z,76.62
2023-01-13T09:57:18.166Z,76.75
2023-01-13T09:59:50.749Z,76.81
2023-01-13T10:02:39.426Z,76.89
2023-01-13T10:05:28.713Z,77.12
2023-01-13T10:08:05.292Z,76.96
2023-01-13T10:10:43.093Z,76.77
2023-01-13T10:13:21.859Z,76.67
2023-01-13T10:16:08.959Z,76.60
2023-01-13T10:18:51.903Z,76.53
2023-01-13T10:21:52.561Z,76.29
2023-01-13T10:24:41.410Z,76.06
2023-01-13T10:27:20.971Z,75.96
2023-01-13T10:29:53.221Z,75.96
2023-01-13T10:32:25.728Z,75.72
2023-01-13T10:34:58.011Z,75.84
2023-01-13T10:37:56.691Z,75.85
2023-01-13T10:40:28.943Z,76.08
2023-01-13T10:43:08.279Z,76.25
2023-01-13T10:45:40.659Z,76.31
2023-01-13T10:48:17.054Z,76.33
2023-01-13T10:50:51.654Z,76.36
2023-01-13T10:53:26.357Z,76.44
2023-01-13T10:56:06.477Z,76.39
2023-01-13T10:58:38.686Z,76.45
2023-01-13T11:01:22.188Z,76.68
2023-01-13T11:03:55.892Z,76.62
2023-01-13T11:06:30.743Z,76.32
2023-01-13T11:09:20.046Z,75.74
2023-01-13T11:11:55.925Z,75.50
2023-01-13T11:14:39.822Z,75.26
2023-01-13T11:17:32.138Z,75.39
2023-01-13T11:20:18.552Z,75.55
2023-01-13T11:22:53.119Z,75.19
2023-01-13T11:25:32.954Z,74.97
2023-01-13T11:28:14.822Z,74.71
2023-01-13T11:30:57.712Z,74.48
2023-01-13T11:33:44.008Z,74.28
2023-01-13T11:36:21.299Z,74.36
2023-01-13T11:39:00.026Z,74.46
2023-01-13T11:41:40.721Z,74.08
2023-01-13T11:44:20.626Z,74.16
2023-01-13T11:46:54.590Z,74.06
2023-01-13T11:49:31.490Z,74.02
2023-01-13T11:52:10.075Z,73.84
2023-01-13T11:55:02.487Z,73.87
2023-01-13T11:57:48.403Z,73.91
2023-01-13T12:00:28.569Z,73.79
2023-01-13T12:03:18.294Z,74.07
2023-01-13T12:06:09.705Z,74.30
2023-01-13T12:09:11.894Z,74.52
2023-01-13T12:12:10.265Z,74.76
2023-01-13T12:14:57.576Z,74.86
2023-01-13T12:17:36.043Z,74.59
2023-01-13T12:20:28.662Z,74.58
2023-01-13T12:23:01.356Z,74.71
2023-01-13T12:25:39.705Z,74.72
2023-01-13T12:28:18.288Z,74.66
2023-01-13T12:30:54.576Z,74.82
2023-01-13T12:33:41.636Z,74.94
2023-01-13T12:36:20.371Z,74.88
2023-01-13T12:38:58.322Z,75.09
2023-01-13T12:41:58.745Z,75.00
2023-01-13T12:44:30.995Z,75.00
2023-01-13T12:47:03.494Z,74.84
2023-01-13T12:49:36.635Z,74.82
2023-01-13T12:52:20.021Z,74.67
2023-01-13T12:55:14.200Z,74.72
2023-01-13T12:58:15.718Z,74.73
2023-01-13T13:01:01.913Z,74.17
2023-01-13T13:03:38.275Z,74.02
2023-01-13T13:06:24.507Z,73.97
2023-01-13T13:09:07.057Z,73.94
2023-01-13T13:12:00.560Z,73.94
2023-01-13T13:15:05.496Z,73.96
2023-01-13T13:17:45.587Z,73.90
2023-01-13T13:20:54.038Z,73.77
2023-01-13T13:23:48.081Z,73.71
2023-01-13T13:26:37.428Z,74.02
2023-01-13T13:29:35.870Z,74.22
2023-01-13T13:32:21.800Z,74.27
2023-01-13T13:35:03.172Z,74.41
2023-01-13T13:38:12.530Z,74.43
2023-01-13T13:41:06.634Z,74.70
2023-01-13T13:44:00.273Z,74.46
2023-01-13T13:46:50.818Z,74.38
2023-01-13T13:49:35.509Z,74.51
2023-01-13T13:52:15.551Z,74.40
2023-01-13T13:54:52.142Z,74.32
2023-01-13T13:57:33.861Z,74.14
2023-01-13T14:00:21.010Z,74.16
2023-01-13T14:02:55.451Z,74.18
2023-01-13T14:05:30.177Z,74.17
2023-01-13T14:08:05.207Z,73.89
2023-01-13T14:10:39.910Z,73.92
2023-01-13T14:13:20.938Z,73.64
2023-01-13T14:15:59.849Z,73.65
2023-01-13T14:18:37.156Z,73.80
2023-01-13T14:21:21.586Z,73.76
2023-01-13T14:23:57.780Z,73.72
2023-01-13T14:26:32.228Z,73.88
2023-01-13T14:29:05.279Z,74.03
2023-01-13T14:31:41.435Z,74.15
2023-01-13T14:34:32.826Z,74.13
2023-01-13T14:37:22.595Z,74.26
2023-01-13T14:39:55.481Z,74.43
2023-01-13T14:42:29.715Z,74.59
2023-01-13T14:45:02.641Z,74.57
2023-01-13T14:47:35.569Z,74.64
2023-01-13T14:50:22.988Z,74.75
2023-01-13T14:52:57.273Z,74.90
2023-01-13T14:55:36.555Z,75.03
2023-01-13T14:58:28.275Z,75.31
2023-01-13T15:01:31.037Z,75.45
2023-01-13T15:04:28.020Z,75.69
2023-01-13T15:07:01.560Z,75.84
2023-01-13T15:09:40.068Z,76.02
2023-01-13T15:12:29.672Z,76.15
2023-01-13T15:15:03.469Z,76.24
2023-01-13T15:17:35.796Z,76.51
2023-01-13T15:20:15.617Z,76.64
2023-01-13T15:22:48.655Z,76.77
2023-01-13T15:25:21.526Z,76.93
2023-01-13T15:33:43.665Z,77.37
2023-01-13T15:36:25.523Z,77.45
2023-01-13T15:38:59.063Z,77.56
2023-01-13T15:41:49.519Z,77.73
2023-01-13T15:44:39.717Z,77.86
2023-01-13T15:47:14.629Z,77.99
2023-01-13T15:49:47.967Z,78.09
2023-01-13T15:52:23.438Z,78.36
2023-01-13T15:54:56.438Z,78.45
2023-01-13T15:57:34.207Z,78.56
2023-01-13T16:00:14.247Z,78.76
2023-01-13T16:02:46.790Z,78.86
2023-01-13T16:05:21.698Z,79.04
2023-01-13T16:07:53.870Z,79.34
2023-01-13T16:10:26.801Z,79.34
2023-01-13T16:12:59.413Z,79.48
2023-01-13T16:15:31.708Z,79.60
2023-01-13T16:18:05.304Z,79.67
2023-01-13T16:20:37.484Z,79.71
2023-01-13T16:23:08.136Z,79.75
2023-01-13T16:25:40.842Z,79.78
2023-01-13T16:28:23.009Z,79.81
2023-01-13T16:30:55.470Z,79.76
2023-01-13T16:33:27.784Z,79.75
2023-01-13T16:36:10.529Z,79.76
2023-01-13T16:38:44.940Z,79.79
2023-01-13T16:41:17.683Z,79.83
2023-01-13T16:43:50.176Z,79.90
2023-01-13T16:46:27.733Z,79.99
2023-01-13T16:49:05.497Z,80.13
2023-01-13T16:51:37.818Z,80.18
2023-01-13T16:54:10.172Z,80.33
2023-01-13T16:56:42.396Z,80.46
2023-01-13T16:59:14.556Z,80.76
2023-01-13T17:01:47.986Z,81.29
2023-01-13T17:04:23.599Z,81.57
2023-01-13T17:07:00.320Z,81.93
2023-01-13T17:09:32.910Z,82.18
2023-01-13T17:12:05.358Z,82.60
2023-01-13T17:14:37.682Z,82.96
2023-01-13T17:17:23.591Z,83.42
2023-01-13T17:19:55.994Z,83.76
2023-01-13T17:22:28.516Z,84.05
2023-01-13T17:25:00.945Z,84.37
2023-01-13T17:27:33.572Z,84.69
2023-01-13T17:30:06.353Z,84.77
2023-01-13T17:32:38.985Z,85.00
2023-01-13T17:35:14.336Z,85.29
2023-01-13T17:37:46.971Z,85.51
2023-01-13T17:40:19.860Z,85.71
2023-01-13T17:42:52.769Z,85.91
2023-01-13T17:45:25.362Z,86.07
2023-01-13T17:47:59.626Z,86.31
2023-01-13T17:50:35.253Z,86.49
2023-01-13T17:53:12.384Z,86.64
2023-01-13T17:55:52.442Z,86.68
2023-01-13T17:58:30.125Z,86.89
2023-01-13T18:01:07.739Z,86.96
2023-01-13T18:03:42.762Z,87.21
2023-01-13T18:06:18.852Z,87.30
2023-01-13T18:08:51.783Z,87.39
2023-01-13T18:11:24.903Z,87.48
2023-01-13T18:13:57.929Z,87.48
2023-01-13T18:16:32.031Z,87.71
2023-01-13T18:19:31.169Z,87.78
2023-01-13T18:22:21.276Z,87.94
2023-01-13T18:25:11.098Z,87.97
2023-01-13T18:27:46.564Z,88.10
2023-01-13T18:30:19.632Z,88.18
2023-01-13T18:32:52.048Z,88.34
2023-01-13T18:35:24.573Z,88.48
2023-01-13T18:37:55.288Z,88.54
2023-01-13T18:40:27.424Z,88.62
2023-01-13T18:42:59.733Z,88.67
2023-01-13T18:45:36.374Z,88.66
2023-01-13T18:48:09.479Z,88.73
2023-01-13T18:50:41.747Z,88.82
2023-01-13T18:53:12.237Z,88.82
2023-01-13T18:55:44.685Z,88.87
2023-01-13T18:58:17.119Z,88.93
2023-01-13T19:00:52.959Z,89.01
2023-01-13T19:03:30.040Z,89.07
2023-01-13T19:06:09.659Z,89.16
2023-01-13T19:08:42.315Z,89.42
2023-01-13T19:11:42.768Z,89.53
2023-01-13T19:14:34.095Z,89.61
2023-01-13T19:17:11.296Z,89.66
2023-01-13T19:19:45.510Z,89.68
2023-01-13T19:22:38.097Z,89.61
2023-01-13T19:25:12.343Z,89.73
2023-01-13T19:27:45.414Z,89.61
2023-01-13T19:30:19.104Z,89.63
2023-01-13T19:32:51.461Z,89.60
2023-01-13T19:35:27.611Z,89.41
2023-01-13T19:38:00.131Z,89.24
2023-01-13T19:40:32.478Z,89.17
2023-01-13T19:43:24.768Z,88.79
2023-01-13T19:45:59.517Z,88.61
2023-01-13T19:48:32.031Z,88.45
2023-01-13T19:51:05.843Z,88.34
2023-01-13T19:53:38.119Z,88.32
2023-01-13T19:56:13.928Z,88.09
2023-01-13T19:58:50.605Z,88.04
2023-01-13T20:01:25.088Z,87.91
2023-01-13T20:04:04.460Z,87.92
2023-01-13T20:06:37.873Z,87.78
2023-01-13T20:09:14.788Z,87.64
2023-01-13T20:11:48.272Z,87.56
2023-01-13T20:14:20.992Z,87.63
2023-01-13T20:16:53.337Z,87.48
2023-01-13T20:19:26.442Z,87.41
2023-01-13T20:22:04.744Z,87.39
2023-01-13T20:24:38.069Z,87.26
2023-01-13T20:27:10.473Z,87.18
2023-01-13T20:29:46.168Z,87.10
2023-01-13T20:32:18.342Z,86.92
2023-01-13T20:34:50.799Z,86.78
2023-01-13T20:37:23.410Z,86.72
2023-01-13T20:39:58.255Z,86.60
2023-01-13T20:42:31.666Z,86.55
2023-01-13T20:45:04.119Z,86.50
2023-01-13T20:47:36.412Z,86.47
2023-01-13T20:50:12.743Z,86.35
2023-01-13T20:52:45.557Z,86.28
2023-01-13T20:55:20.959Z,86.14
2023-01-13T20:57:53.313Z,86.07
2023-01-13T21:00:24.544Z,85.91
2023-01-13T21:02:56.661Z,85.93
2023-01-13T21:05:29.646Z,85.99
2023-01-13T21:08:01.945Z,85.90
2023-01-13T21:10:34.116Z,85.72
2023-01-13T21:13:23.939Z,85.52
2023-01-13T21:15:56.538Z,85.42
2023-01-13T21:18:48.521Z,85.34
2023-01-13T21:21:21.784Z,85.29
2023-01-13T21:23:54.505Z,85.22
2023-01-13T21:26:26.978Z,85.20
2023-01-13T21:29:02.402Z,85.08
2023-01-13T21:31:34.519Z,85.11
2023-01-13T21:34:06.798Z,85.03
2023-01-13T21:36:39.352Z,84.90
2023-01-13T21:39:14.227Z,84.77
2023-01-13T21:42:04.490Z,84.79
2023-01-13T21:44:54.848Z,84.70
2023-01-13T21:47:44.759Z,84.58
2023-01-13T21:50:19.340Z,84.43
2023-01-13T21:52:53.393Z,84.21
2023-01-13T21:55:28.605Z,83.99
2023-01-13T21:58:13.445Z,83.74
2023-01-13T22:00:46.501Z,83.71
2023-01-13T22:03:22.298Z,83.60
2023-01-13T22:05:57.895Z,83.36
2023-01-13T22:08:33.552Z,83.24
2023-01-13T22:11:06.627Z,83.23
2023-01-13T22:13:58.191Z,82.88
2023-01-13T22:16:31.605Z,82.68
2023-01-13T22:19:04.487Z,82.67
2023-01-13T22:21:37.624Z,82.49
2023-01-13T22:24:10.661Z,82.48
2023-01-13T22:26:43.016Z,82.36
2023-01-13T22:29:13.886Z,82.28
2023-01-13T22:31:57.161Z,82.35
2023-01-13T22:34:32.840Z,82.42
2023-01-13T22:37:05.705Z,82.32
2023-01-13T22:39:38.066Z,82.16
2023-01-13T22:42:11.697Z,82.16
2023-01-13T22:44:45.530Z,82.23
2023-01-13T22:47:18.093Z,82.12
2023-01-13T22:49:50.172Z,82.00
2023-01-13T22:52:22.608Z,82.08
2023-01-13T22:54:55.045Z,82.07
2023-01-13T22:57:25.718Z,82.00
2023-01-13T22:59:58.029Z,82.06
2023-01-13T23:02:34.465Z,82.01
2023-01-13T23:05:10.806Z,81.94
2023-01-13T23:07:43.381Z,81.88
2023-01-13T23:10:15.971Z,81.99
2023-01-13T23:12:48.998Z,82.20
2023-01-13T23:15:21.330Z,82.23
2023-01-13T23:17:52.399Z,82.20
2023-01-13T23:20:25.102Z,82.14
2023-01-13T23:22:59.112Z,82.10
2023-01-13T23:25:31.696Z,81.96
2023-01-13T23:28:04.032Z,81.71
2023-01-13T23:30:36.241Z,81.69
2023-01-13T23:33:08.894Z,81.63
2023-01-13T23:35:39.396Z,81.56
2023-01-13T23:38:11.597Z,81.68
2023-01-13T23:40:46.395Z,81.56
2023-01-13T23:43:21.381Z,81.47
2023-01-13T23:46:03.941Z,81.37
2023-01-13T23:48:36.802Z,81.40
2023-01-13T23:51:12.341Z,81.41
2023-01-13T23:53:47.118Z,81.26
2023-01-13T23:56:21.750Z,81.11
2023-01-13T23:58:54.468Z,81.11
